createdAt,value
2022-11-16T00:01:57.313Z,100930.13
2022-11-16T00:04:25.356Z,100923.75
2022-11-16T00:06:53.343Z,100927.44
2022-11-16T00:09:24.228Z,100928.28
2022-11-16T00:11:54.065Z,100919.38
2022-11-16T00:14:23.806Z,100906.22
2022-11-16T00:16:52.106Z,100921.19
2022-11-16T00:19:21.505Z,100925.75
2022-11-16T00:21:49.870Z,100920.38
2022-11-16T00:24:19.632Z,100916.97
2022-11-16T00:26:48.208Z,100915.28
2022-11-16T00:29:17.596Z,100917.97
2022-11-16T00:31:46.352Z,100908.19
2022-11-16T00:34:14.704Z,100930.69
2022-11-16T00:36:44.106Z,100924.31
2022-11-16T00:39:13.057Z,100928.00
2022-11-16T00:41:41.225Z,100922.63
2022-11-16T00:44:09.800Z,100937.88
2022-11-16T00:46:40.360Z,100920.94
2022-11-16T00:49:08.451Z,100930.00
2022-11-16T00:51:37.504Z,100930.81
2022-11-16T00:54:08.491Z,100920.94
2022-11-16T00:56:37.126Z,100939.72
2022-11-16T00:59:05.468Z,100933.38
2022-11-16T01:01:33.609Z,100927.13
2022-11-16T01:04:01.747Z,100920.94
2022-11-16T01:06:29.945Z,100924.63
2022-11-16T01:08:57.913Z,100928.28
2022-11-16T01:11:45.941Z,100926.59
2022-11-16T01:14:13.919Z,100930.97
2022-11-16T01:16:41.877Z,100932.69
2022-11-16T01:19:10.779Z,100929.28
2022-11-16T01:21:38.757Z,100928.28
2022-11-16T01:24:07.465Z,100939.00
2022-11-16T01:26:36.802Z,100948.06
2022-11-16T01:29:04.873Z,100937.31
2022-11-16T01:31:32.885Z,100937.31
2022-11-16T01:34:00.983Z,100942.69
2022-11-16T01:36:28.922Z,100924.91
2022-11-16T01:38:56.850Z,100930.28
2022-11-16T01:41:25.997Z,100928.56
2022-11-16T01:43:58.784Z,100931.97
2022-11-16T01:46:27.888Z,100949.75
2022-11-16T01:49:01.922Z,100907.06
2022-11-16T01:51:30.406Z,100924.91
2022-11-16T01:53:58.990Z,100933.78
2022-11-16T01:56:27.354Z,100940.88
2022-11-16T01:58:56.694Z,100919.25
2022-11-16T02:01:26.124Z,100918.38
2022-11-16T02:03:54.169Z,100935.38
2022-11-16T02:06:33.683Z,100935.38
2022-11-16T02:09:35.608Z,100923.91
2022-11-16T02:12:17.588Z,100931.09
2022-11-16T02:15:00.457Z,100926.59
2022-11-16T02:17:40.057Z,100912.44
2022-11-16T02:20:35.840Z,100922.22
2022-11-16T02:23:28.074Z,100919.53
2022-11-16T02:26:08.479Z,100916.84
2022-11-16T02:28:49.676Z,100907.06
2022-11-16T02:31:25.812Z,100901.97
2022-11-16T02:33:55.269Z,100915.97
2022-11-16T02:36:26.104Z,100898.31
2022-11-16T02:38:59.248Z,100894.66
2022-11-16T02:41:29.925Z,100889.28
2022-11-16T02:44:03.789Z,100877.97
2022-11-16T02:46:39.198Z,100882.22
2022-11-16T02:49:12.315Z,100882.22
2022-11-16T02:51:41.962Z,100883.03
2022-11-16T02:54:13.234Z,100878.53
2022-11-16T02:56:44.443Z,100886.59
2022-11-16T02:59:17.386Z,100885.88
2022-11-16T03:01:54.591Z,100891.97
2022-11-16T03:04:28.537Z,100889.28
2022-11-16T03:06:59.385Z,100891.97
2022-11-16T03:09:31.318Z,100883.91
2022-11-16T03:12:01.071Z,100886.59
2022-11-16T03:14:34.842Z,100884.91
2022-11-16T03:17:07.231Z,100888.56
2022-11-16T03:19:41.296Z,100877.41
2022-11-16T03:22:14.702Z,100887.59
2022-11-16T03:24:43.112Z,100883.91
2022-11-16T03:27:24.995Z,100882.22
2022-11-16T03:30:01.368Z,100882.22
2022-11-16T03:32:34.778Z,100863.81
2022-11-16T03:35:09.353Z,100892.09
2022-11-16T03:37:38.234Z,100878.66
2022-11-16T03:40:08.748Z,100875.13
2022-11-16T03:42:37.811Z,100887.59
2022-11-16T03:45:06.944Z,100891.25
2022-11-16T03:47:36.296Z,100880.50
2022-11-16T03:50:04.362Z,100887.59
2022-11-16T03:52:32.563Z,100905.94
2022-11-16T03:55:00.616Z,100877.41
2022-11-16T03:57:28.987Z,100877.41
2022-11-16T03:59:57.151Z,100877.13
2022-11-16T04:02:25.230Z,100870.03
2022-11-16T04:05:12.174Z,100866.66
2022-11-16T04:07:57.382Z,100859.31
2022-11-16T04:10:39.303Z,100859.31
2022-11-16T04:13:29.629Z,100873.72
2022-11-16T04:16:15.097Z,100863.84
2022-11-16T04:19:00.441Z,100863.00
2022-11-16T04:21:52.173Z,100860.31
2022-11-16T04:24:23.555Z,100860.59
2022-11-16T04:27:13.026Z,100866.66
2022-11-16T04:29:42.240Z,100864.66
2022-11-16T04:32:28.624Z,100867.34
2022-11-16T04:35:14.436Z,100868.06
2022-11-16T04:37:53.539Z,100872.88
2022-11-16T04:40:23.713Z,100874.00
2022-11-16T04:42:53.358Z,100864.25
2022-11-16T04:45:39.454Z,100851.25
2022-11-16T04:48:08.289Z,100855.94
2022-11-16T04:50:36.919Z,100866.66
2022-11-16T04:53:06.872Z,100859.31
2022-11-16T04:55:35.308Z,100857.63
2022-11-16T04:58:03.858Z,100859.31
2022-11-16T05:00:32.105Z,100859.31
2022-11-16T05:03:01.689Z,100859.59
2022-11-16T05:05:30.182Z,100872.72
2022-11-16T05:07:58.093Z,100873.72
2022-11-16T05:10:27.608Z,100868.34
2022-11-16T05:12:55.565Z,100862.28
2022-11-16T05:15:23.571Z,100867.34
2022-11-16T05:17:54.926Z,100874.72
2022-11-16T05:20:40.275Z,100855.94
2022-11-16T05:23:28.770Z,100853.25
2022-11-16T05:25:58.122Z,100857.03
2022-11-16T05:28:26.075Z,100859.88
2022-11-16T05:30:53.976Z,100859.59
2022-11-16T05:33:21.908Z,100779.28
2022-11-16T05:35:50.878Z,100850.84
2022-11-16T05:38:19.022Z,100859.59
2022-11-16T05:40:46.958Z,100859.88
2022-11-16T05:43:16.346Z,100852.53
2022-11-16T05:45:44.682Z,100852.53
2022-11-16T05:48:12.609Z,100849.13
2022-11-16T05:50:42.976Z,100854.22
2022-11-16T05:53:11.334Z,100847.16
2022-11-16T05:55:39.276Z,100843.47
2022-11-16T05:58:07.212Z,100850.56
2022-11-16T06:00:36.572Z,100846.88
2022-11-16T06:03:04.612Z,100850.69
2022-11-16T06:05:37.572Z,100846.88
2022-11-16T06:08:08.443Z,100853.94
2022-11-16T06:10:36.982Z,100860.16
2022-11-16T06:13:05.030Z,100853.94
2022-11-16T06:15:32.965Z,100855.22
2022-11-16T06:18:02.476Z,100847.72
2022-11-16T06:20:30.672Z,100857.63
2022-11-16T06:22:58.608Z,100844.34
2022-11-16T06:25:26.982Z,100855.94
2022-11-16T06:27:54.962Z,100856.91
2022-11-16T06:30:22.873Z,100853.25
2022-11-16T06:32:50.793Z,100858.63
2022-11-16T06:35:20.181Z,100865.81
2022-11-16T06:37:48.130Z,100861.31
2022-11-16T06:40:16.095Z,100873.72
2022-11-16T06:42:44.352Z,100868.34
2022-11-16T06:45:12.368Z,100863.00
2022-11-16T06:47:40.353Z,100863.00
2022-11-16T06:50:08.999Z,100862.13
2022-11-16T06:52:38.342Z,100861.31
2022-11-16T06:55:07.065Z,100854.22
2022-11-16T06:57:36.244Z,100855.06
2022-11-16T07:00:05.374Z,100856.75
2022-11-16T07:02:33.345Z,100855.94
2022-11-16T07:05:03.671Z,100859.31
2022-11-16T07:07:32.125Z,100862.69
2022-11-16T07:10:01.528Z,100847.31
2022-11-16T07:12:29.984Z,100851.69
2022-11-16T07:14:58.145Z,100854.22
2022-11-16T07:17:26.580Z,100851.41
2022-11-16T07:19:55.343Z,100855.78
2022-11-16T07:22:32.163Z,100851.41
2022-11-16T07:25:11.338Z,100852.13
2022-11-16T07:27:43.982Z,100858.19
2022-11-16T07:30:14.586Z,100859.88
2022-11-16T07:32:45.364Z,100858.91
2022-11-16T07:35:14.691Z,100857.59
2022-11-16T07:37:46.254Z,100858.03
2022-11-16T07:40:16.992Z,100865.53
2022-11-16T07:42:45.884Z,100863.84
2022-11-16T07:45:14.000Z,100861.00
2022-11-16T07:47:42.019Z,100869.06
2022-11-16T07:50:11.173Z,100868.06
2022-11-16T07:52:39.443Z,100876.13
2022-11-16T07:55:07.679Z,100875.13
2022-11-16T07:57:37.252Z,100869.75
2022-11-16T08:00:05.832Z,100871.47
2022-11-16T08:02:33.797Z,100878.53
2022-11-16T08:05:01.810Z,100864.09
2022-11-16T08:07:29.837Z,100864.25
2022-11-16T08:09:58.015Z,100873.16
2022-11-16T08:12:26.043Z,100884.91
2022-11-16T08:14:55.366Z,100865.09
2022-11-16T08:17:23.321Z,100873.16
2022-11-16T08:19:51.734Z,100874.84
2022-11-16T08:22:19.670Z,100865.25
2022-11-16T08:24:47.648Z,100874.84
2022-11-16T08:27:17.489Z,100867.50
2022-11-16T08:29:45.483Z,100873.72
2022-11-16T08:32:16.176Z,100869.19
2022-11-16T08:34:44.126Z,100872.88
2022-11-16T08:37:12.096Z,100885.31
2022-11-16T08:39:40.139Z,100883.63
2022-11-16T08:42:08.234Z,100858.47
2022-11-16T08:44:36.254Z,100866.66
2022-11-16T08:47:04.284Z,100865.81
2022-11-16T08:49:33.946Z,100860.44
2022-11-16T08:52:01.920Z,100866.66
2022-11-16T08:54:30.101Z,100862.13
2022-11-16T08:56:58.163Z,100856.75
2022-11-16T08:59:26.215Z,100858.44
2022-11-16T09:01:54.328Z,100861.13
2022-11-16T09:04:23.413Z,100860.16
2022-11-16T09:06:53.466Z,100854.78
2022-11-16T09:09:21.523Z,100854.78
2022-11-16T09:11:53.099Z,100849.41
2022-11-16T09:14:21.963Z,100844.88
2022-11-16T09:16:49.915Z,100856.47
2022-11-16T09:19:17.861Z,100846.44
2022-11-16T09:21:45.825Z,100849.13
2022-11-16T09:24:15.158Z,100852.78
2022-11-16T09:26:43.664Z,100853.66
2022-11-16T09:29:14.503Z,100856.47
2022-11-16T09:31:43.213Z,100854.78
2022-11-16T09:34:11.390Z,100860.16
2022-11-16T09:36:39.331Z,100865.53
2022-11-16T09:42:06.745Z,100867.22
2022-11-16T09:44:59.503Z,100866.22
2022-11-16T09:47:41.099Z,100868.91
2022-11-16T09:50:23.810Z,100858.44
2022-11-16T09:52:53.703Z,100858.72
2022-11-16T09:55:27.314Z,100855.63
2022-11-16T09:58:00.619Z,100860.31
2022-11-16T10:00:31.893Z,100859.16
2022-11-16T10:03:05.509Z,100854.78
2022-11-16T10:05:40.059Z,100846.00
2022-11-16T10:08:15.710Z,100845.72
2022-11-16T10:10:53.152Z,100850.25
2022-11-16T10:13:37.240Z,100854.78
2022-11-16T10:16:11.784Z,100840.34
2022-11-16T10:18:55.403Z,100847.41
2022-11-16T10:21:42.822Z,100838.66
2022-11-16T10:24:27.435Z,100839.50
2022-11-16T10:27:08.982Z,100840.34
2022-11-16T10:29:49.728Z,100835.28
2022-11-16T10:32:26.262Z,100844.03
2022-11-16T10:34:55.796Z,100838.66
2022-11-16T10:37:29.513Z,100834.13
2022-11-16T10:39:57.888Z,100832.44
2022-11-16T10:42:34.402Z,100842.03
2022-11-16T10:45:14.734Z,100832.16
2022-11-16T10:47:50.195Z,100833.00
2022-11-16T10:50:33.163Z,100841.75
2022-11-16T10:53:01.981Z,100835.41
2022-11-16T10:55:30.308Z,100835.41
2022-11-16T10:58:00.885Z,100826.66
2022-11-16T11:00:47.805Z,100847.13
2022-11-16T11:03:16.531Z,100833.00
2022-11-16T11:05:52.316Z,100836.66
2022-11-16T11:08:30.460Z,100826.06
2022-11-16T11:11:03.267Z,100841.50
2022-11-16T11:13:30.340Z,100812.38
2022-11-16T11:16:18.886Z,100826.22
2022-11-16T11:18:46.829Z,100819.16
2022-11-16T11:21:19.999Z,100810.09
2022-11-16T11:23:50.938Z,100811.81
2022-11-16T11:26:42.131Z,100813.78
2022-11-16T11:29:23.577Z,100812.94
2022-11-16T11:31:55.607Z,100806.72
2022-11-16T11:34:26.801Z,100815.06
2022-11-16T11:36:57.168Z,100805.00
2022-11-16T11:39:31.628Z,100799.63
2022-11-16T11:42:06.107Z,100796.97
2022-11-16T11:44:49.285Z,100789.19
2022-11-16T11:50:26.184Z,100793.44
2022-11-16T11:53:04.459Z,100797.97
2022-11-16T11:55:32.431Z,100797.97
2022-11-16T11:58:02.061Z,100800.63
2022-11-16T12:00:37.937Z,100806.16
2022-11-16T12:03:47.889Z,100806.16
2022-11-16T12:06:34.247Z,100818.03
2022-11-16T12:09:22.405Z,100820.88
2022-11-16T12:12:02.830Z,100815.66
2022-11-16T12:14:47.876Z,100821.44
2022-11-16T12:17:24.310Z,100807.88
2022-11-16T12:20:09.958Z,100819.19
2022-11-16T12:23:03.923Z,100801.09
2022-11-16T12:25:41.781Z,100829.63
2022-11-16T12:28:26.246Z,100834.16
2022-11-16T12:31:10.215Z,100835.28
2022-11-16T12:33:46.778Z,100835.16
2022-11-16T12:36:26.164Z,100838.69
2022-11-16T12:39:06.217Z,100833.00
2022-11-16T12:41:51.772Z,100841.78
2022-11-16T12:44:28.592Z,100832.72
2022-11-16T12:47:07.106Z,100838.81
2022-11-16T12:49:59.992Z,100839.53
2022-11-16T12:52:46.304Z,100840.34
2022-11-16T12:55:30.628Z,100835.84
2022-11-16T12:58:15.869Z,100834.97
2022-11-16T13:00:57.027Z,100828.78
2022-11-16T13:03:33.791Z,100834.16
2022-11-16T13:06:05.824Z,100830.47
2022-11-16T13:08:49.605Z,100812.53
2022-11-16T13:11:24.068Z,100827.66
2022-11-16T13:13:58.501Z,100828.50
2022-11-16T13:16:27.379Z,100843.63
2022-11-16T13:18:56.659Z,100777.22
2022-11-16T13:21:37.185Z,100831.31
2022-11-16T13:24:17.873Z,100835.56
2022-11-16T13:26:56.857Z,100835.56
2022-11-16T13:29:33.764Z,100831.88
2022-11-16T13:32:10.439Z,100829.91
2022-11-16T13:34:41.002Z,100824.81
2022-11-16T13:37:42.479Z,100833.59
2022-11-16T13:40:20.857Z,100807.16
2022-11-16T13:43:04.404Z,100823.13
2022-11-16T13:45:36.256Z,100815.06
2022-11-16T13:48:14.854Z,100816.03
2022-11-16T13:50:49.788Z,100814.06
2022-11-16T13:54:32.667Z,100824.53
2022-11-16T13:56:16.060Z,100824.81
2022-11-16T13:58:50.730Z,100827.34
2022-11-16T14:01:20.579Z,100817.75
2022-11-16T14:03:51.769Z,100803.91
2022-11-16T14:06:59.385Z,100813.78
2022-11-16T14:09:44.948Z,100819.16
2022-11-16T14:12:58.736Z,100824.53
2022-11-16T14:15:36.027Z,100825.25
2022-11-16T14:18:32.455Z,100820.84
2022-11-16T14:21:06.903Z,100829.91
2022-11-16T14:23:53.084Z,100815.47
2022-11-16T14:26:26.108Z,100825.25
2022-11-16T14:29:20.230Z,100822.56
2022-11-16T14:31:53.434Z,100829.63
2022-11-16T14:34:25.370Z,100826.22
2022-11-16T14:36:54.703Z,100816.03
2022-11-16T14:39:37.861Z,100819.16
2022-11-16T14:42:08.676Z,100822.28
2022-11-16T14:44:40.005Z,100816.03
2022-11-16T14:47:21.881Z,100830.31
2022-11-16T14:49:50.337Z,100815.19
2022-11-16T14:52:21.356Z,100801.94
2022-11-16T14:54:54.770Z,100812.09
2022-11-16T14:57:24.886Z,100815.22
2022-11-16T15:00:09.088Z,100826.78
2022-11-16T15:02:40.218Z,100824.81
2022-11-16T15:05:08.900Z,100779.06
2022-11-16T15:07:37.293Z,100820.59
2022-11-16T15:10:05.893Z,100803.91
2022-11-16T15:12:43.222Z,100837.81
2022-11-16T15:15:17.359Z,100836.25
2022-11-16T15:17:53.377Z,100837.13
2022-11-16T15:20:23.506Z,100836.41
2022-11-16T15:22:54.047Z,100842.91
2022-11-16T15:25:28.707Z,100798.69
2022-11-16T15:27:58.539Z,100840.38
2022-11-16T15:30:29.144Z,100804.19
2022-11-16T15:32:58.719Z,100842.63
2022-11-16T15:35:30.475Z,100843.34
2022-11-16T15:38:06.002Z,100854.09
2022-11-16T15:40:35.364Z,100804.06
2022-11-16T15:43:06.375Z,100850.69
2022-11-16T15:45:35.444Z,100842.50
2022-11-16T15:48:06.426Z,100844.34
2022-11-16T15:50:34.629Z,100828.81
2022-11-16T15:53:02.660Z,100840.66
2022-11-16T15:55:34.698Z,100846.03
2022-11-16T15:58:06.049Z,100841.81
2022-11-16T16:00:36.404Z,100844.34
2022-11-16T16:03:17.605Z,100842.63
2022-11-16T16:05:46.400Z,100846.19
2022-11-16T16:08:27.522Z,100839.25
2022-11-16T16:11:03.827Z,100839.25
2022-11-16T16:13:34.741Z,100822.56
2022-11-16T16:16:26.194Z,100839.53
2022-11-16T16:18:58.409Z,100829.38
2022-11-16T16:21:27.651Z,100843.19
2022-11-16T16:23:57.627Z,100838.69
2022-11-16T16:26:25.756Z,100830.78
2022-11-16T16:28:53.723Z,100841.50
2022-11-16T16:31:22.173Z,100839.81
2022-11-16T16:33:51.580Z,100832.47
2022-11-16T16:36:24.200Z,100832.47
2022-11-16T16:38:56.785Z,100825.69
2022-11-16T16:41:31.234Z,100832.72
2022-11-16T16:44:03.604Z,100819.19
2022-11-16T16:46:35.906Z,100837.00
2022-11-16T16:49:05.898Z,100836.13
2022-11-16T16:51:38.843Z,100836.13
2022-11-16T16:54:08.622Z,100847.88
2022-11-16T16:56:38.085Z,100821.44
2022-11-16T16:59:07.270Z,100841.78
2022-11-16T17:01:39.407Z,100857.91
2022-11-16T17:04:08.947Z,100849.13
2022-11-16T17:06:45.303Z,100846.44
2022-11-16T17:09:16.298Z,100852.53
2022-11-16T17:11:45.756Z,100847.16
2022-11-16T17:14:14.903Z,100858.91
2022-11-16T17:16:44.460Z,100850.84
2022-11-16T17:19:13.997Z,100850.84
2022-11-16T17:21:45.526Z,100852.81
2022-11-16T17:24:14.394Z,100847.72
2022-11-16T17:26:48.468Z,100852.53
2022-11-16T17:29:17.871Z,100854.50
2022-11-16T17:31:52.158Z,100848.00
2022-11-16T17:34:21.473Z,100851.13
2022-11-16T17:36:52.727Z,100857.31
2022-11-16T17:39:22.517Z,100834.56
2022-11-16T17:41:52.018Z,100824.25
2022-11-16T17:44:22.333Z,100858.19
2022-11-16T17:46:51.874Z,100870.59
2022-11-16T17:49:21.921Z,100866.22
2022-11-16T17:51:52.977Z,100873.56
2022-11-16T17:54:25.121Z,100876.53
2022-11-16T17:56:54.378Z,100858.44
2022-11-16T17:59:29.875Z,100879.22
2022-11-16T18:02:00.960Z,100842.59
2022-11-16T18:04:30.635Z,100876.53
2022-11-16T18:07:01.493Z,100885.56
2022-11-16T18:09:30.674Z,100887.53
2022-11-16T18:11:59.919Z,100887.25
2022-11-16T18:14:29.192Z,100884.44
2022-11-16T18:16:58.406Z,100881.91
2022-11-16T18:19:27.681Z,100879.94
2022-11-16T18:21:56.958Z,100882.63
2022-11-16T18:24:27.611Z,100868.34
2022-11-16T18:26:56.815Z,100876.81
2022-11-16T18:29:26.850Z,100887.25
2022-11-16T18:31:56.316Z,100853.06
2022-11-16T18:34:25.159Z,100883.63
2022-11-16T18:36:54.058Z,100880.78
2022-11-16T18:39:22.551Z,100894.34
2022-11-16T18:41:55.102Z,100888.97
2022-11-16T18:44:23.856Z,100893.34
2022-11-16T18:46:52.021Z,100891.66
2022-11-16T18:49:20.142Z,100899.72
2022-11-16T18:51:48.594Z,100895.19
2022-11-16T18:54:16.538Z,100901.13
2022-11-16T18:56:44.464Z,100900.84
2022-11-16T18:59:13.780Z,100900.56
2022-11-16T19:01:41.784Z,100899.72
2022-11-16T19:04:10.519Z,100891.25
2022-11-16T19:06:38.579Z,100910.75
2022-11-16T19:09:09.665Z,100906.94
2022-11-16T19:11:37.746Z,100899.72
2022-11-16T19:14:07.790Z,100896.03
2022-11-16T19:16:38.851Z,100897.78
2022-11-16T19:19:08.667Z,100894.38
2022-11-16T19:21:36.666Z,100811.94
2022-11-16T19:24:07.897Z,100892.22
2022-11-16T19:26:35.862Z,100897.47
2022-11-16T19:29:04.362Z,100892.09
2022-11-16T19:31:33.648Z,100899.16
2022-11-16T19:34:05.190Z,100895.50
2022-11-16T19:36:34.284Z,100856.22
2022-11-16T19:39:02.776Z,100883.75
2022-11-16T19:41:30.759Z,100892.66
2022-11-16T19:44:01.613Z,100889.84
2022-11-16T19:46:31.139Z,100889.84
2022-11-16T19:48:59.603Z,100876.28
2022-11-16T19:51:30.753Z,100882.50
2022-11-16T19:54:00.512Z,100886.16
2022-11-16T19:56:28.818Z,100884.19
2022-11-16T19:58:56.842Z,100883.31
2022-11-16T20:01:28.034Z,100878.81
2022-11-16T20:03:57.916Z,100883.19
2022-11-16T20:06:29.455Z,100885.88
2022-11-16T20:09:00.602Z,100881.50
2022-11-16T20:11:30.166Z,100886.72
2022-11-16T20:13:59.576Z,100883.19
2022-11-16T20:16:34.080Z,100878.81
2022-11-16T20:19:05.616Z,100891.25
2022-11-16T20:21:36.992Z,100885.03
2022-11-16T20:24:07.530Z,100892.97
2022-11-16T20:26:37.016Z,100890.13
2022-11-16T20:29:05.957Z,100891.81
2022-11-16T20:31:34.959Z,100889.00
2022-11-16T20:34:04.590Z,100897.03
2022-11-16T20:36:35.120Z,100896.34
2022-11-16T20:39:03.370Z,100887.31
2022-11-16T20:41:36.785Z,100901.69
2022-11-16T20:44:04.987Z,100896.63
2022-11-16T20:46:34.619Z,100872.59
2022-11-16T20:49:02.736Z,100902.84
2022-11-16T20:51:31.030Z,100900.88
2022-11-16T20:54:00.509Z,100903.69
2022-11-16T20:56:28.813Z,100911.63
2022-11-16T20:58:58.240Z,100908.06
2022-11-16T21:01:31.856Z,100910.75
2022-11-16T21:04:02.079Z,100905.38
2022-11-16T21:06:31.314Z,100907.06
2022-11-16T21:09:01.243Z,100917.81
2022-11-16T21:11:31.029Z,100898.34
2022-11-16T21:14:16.265Z,100902.69
2022-11-16T21:16:45.072Z,100868.34
2022-11-16T21:19:13.860Z,100896.34
2022-11-16T21:21:42.288Z,100892.97
2022-11-16T21:24:12.187Z,100895.78
2022-11-16T21:26:40.145Z,100892.38
2022-11-16T21:29:08.138Z,100898.91
2022-11-16T21:31:37.672Z,100878.53
2022-11-16T21:34:05.926Z,100893.81
2022-11-16T21:36:36.142Z,100901.13
2022-11-16T21:39:04.325Z,100903.13
2022-11-16T21:41:34.025Z,100897.78
2022-11-16T21:44:01.993Z,100893.66
2022-11-16T21:46:29.928Z,100898.88
2022-11-16T21:48:59.007Z,100900.59
2022-11-16T21:51:28.247Z,100894.38
2022-11-16T21:53:56.709Z,100899.72
2022-11-16T21:56:26.161Z,100892.69
2022-11-16T21:58:56.014Z,100898.03
2022-11-16T22:01:24.758Z,100887.31
2022-11-16T22:04:07.297Z,100894.50
2022-11-16T22:06:52.572Z,100889.28
2022-11-16T22:09:20.633Z,100883.91
2022-11-16T22:11:49.012Z,100895.66
2022-11-16T22:14:18.377Z,100889.56
2022-11-16T22:16:46.287Z,100887.72
2022-11-16T22:19:14.238Z,100878.81
2022-11-16T22:21:42.177Z,100878.81
2022-11-16T22:24:10.221Z,100873.72
2022-11-16T22:26:39.949Z,100887.88
2022-11-16T22:29:07.886Z,100889.56
2022-11-16T22:31:37.592Z,100886.16
2022-11-16T22:34:05.738Z,100883.47
2022-11-16T22:36:33.896Z,100886.16
2022-11-16T22:39:02.597Z,100851.97
2022-11-16T22:41:30.584Z,100875.69
2022-11-16T22:43:58.602Z,100877.41
2022-11-16T22:46:26.635Z,100878.22
2022-11-16T22:48:56.020Z,100886.16
2022-11-16T22:51:26.025Z,100879.09
2022-11-16T22:53:55.258Z,100879.09
2022-11-16T22:56:23.560Z,100876.56
2022-11-16T22:58:52.057Z,100876.56
2022-11-16T23:01:20.649Z,100866.66
2022-11-16T23:03:50.068Z,100867.50
2022-11-16T23:06:20.464Z,100870.19
2022-11-16T23:08:48.869Z,100872.03
2022-11-16T23:11:35.889Z,100871.19
2022-11-16T23:14:22.452Z,100860.44
2022-11-16T23:16:50.975Z,100864.94
2022-11-16T23:19:38.607Z,100855.22
2022-11-16T23:22:26.916Z,100852.53
2022-11-16T23:25:12.043Z,100857.91
2022-11-16T23:27:43.876Z,100851.66
2022-11-16T23:30:13.536Z,100841.78
2022-11-16T23:32:42.180Z,100856.22
2022-11-16T23:35:12.249Z,100851.66
2022-11-16T23:37:55.339Z,100836.41
2022-11-16T23:40:25.769Z,100834.72
2022-11-16T23:43:12.094Z,100816.91
2022-11-16T23:45:40.431Z,100826.81
2022-11-16T23:48:09.814Z,100819.59
2022-11-16T23:50:38.475Z,100816.91
2022-11-16T23:53:09.616Z,100827.66
2022-11-16T23:55:39.446Z,100816.91
2022-11-16T23:58:08.776Z,100825.97
